sensor_id;sensor_type;location;lat;lon;timestamp;temperature;humidity
1880;DHT22;49285;49.002;8.390;2023-08-20T00:00:16;27.30;99.90
1880;DHT22;49285;49.002;8.390;2023-08-20T00:02:42;27.30;99.90
1880;DHT22;49285;49.002;8.390;2023-08-20T00:05:09;27.30;99.90
1880;DHT22;49285;49.002;8.390;2023-08-20T00:07:35;27.30;99.90
1880;DHT22;49285;49.002;8.390;2023-08-20T00:10:01;27.30;99.90
1880;DHT22;49285;49.002;8.390;2023-08-20T00:12:27;27.30;99.90
1880;DHT22;49285;49.002;8.390;2023-08-20T00:14:58;27.20;99.90
1880;DHT22;49285;49.002;8.390;2023-08-20T00:17:34;27.20;99.90
1880;DHT22;49285;49.002;8.390;2023-08-20T00:20:00;27.20;99.90
1880;DHT22;49285;49.002;8.390;2023-08-20T00:22:26;27.20;99.90
1880;DHT22;49285;49.002;8.390;2023-08-20T00:24:53;27.20;99.90
1880;DHT22;49285;49.002;8.390;2023-08-20T00:27:20;27.20;99.90
1880;DHT22;49285;49.002;8.390;2023-08-20T00:29:46;27.20;99.90
1880;DHT22;49285;49.002;8.390;2023-08-20T00:32:11;27.20;99.90
1880;DHT22;49285;49.002;8.390;2023-08-20T00:34:37;27.20;99.90
1880;DHT22;49285;49.002;8.390;2023-08-20T00:37:03;27.10;99.90
1880;DHT22;49285;49.002;8.390;2023-08-20T00:39:29;27.10;99.90
1880;DHT22;49285;49.002;8.390;2023-08-20T00:41:55;27.10;99.90
1880;DHT22;49285;49.002;8.390;2023-08-20T00:44:20;27.10;99.90
1880;DHT22;49285;49.002;8.390;2023-08-20T00:46:46;27.10;99.90
1880;DHT22;49285;49.002;8.390;2023-08-20T00:49:12;27.10;99.90
1880;DHT22;49285;49.002;8.390;2023-08-20T00:51:38;27.10;99.90
1880;DHT22;49285;49.002;8.390;2023-08-20T00:54:04;27.10;99.90
1880;DHT22;49285;49.002;8.390;2023-08-20T00:56:30;27.00;99.90
1880;DHT22;49285;49.002;8.390;2023-08-20T00:58:56;27.10;99.90
1880;DHT22;49285;49.002;8.390;2023-08-20T01:01:23;27.00;99.90
1880;DHT22;49285;49.002;8.390;2023-08-20T01:03:48;27.00;99.90
1880;DHT22;49285;49.002;8.390;2023-08-20T01:08:44;27.00;99.90
1880;DHT22;49285;49.002;8.390;2023-08-20T01:11:17;27.00;99.90
1880;DHT22;49285;49.002;8.390;2023-08-20T01:13:43;27.00;99.90
1880;DHT22;49285;49.002;8.390;2023-08-20T01:16:09;27.00;99.90
1880;DHT22;49285;49.002;8.390;2023-08-20T01:18:34;27.00;99.90
1880;DHT22;49285;49.002;8.390;2023-08-20T01:21:11;27.00;99.90
1880;DHT22;49285;49.002;8.390;2023-08-20T01:26:48;27.00;99.90
1880;DHT22;49285;49.002;8.390;2023-08-20T01:29:19;26.90;99.90
1880;DHT22;49285;49.002;8.390;2023-08-20T01:31:45;26.90;99.90
1880;DHT22;49285;49.002;8.390;2023-08-20T01:34:11;26.90;99.90
1880;DHT22;49285;49.002;8.390;2023-08-20T01:36:38;26.90;99.90
1880;DHT22;49285;49.002;8.390;2023-08-20T01:39:04;26.90;99.90
1880;DHT22;49285;49.002;8.390;2023-08-20T01:41:30;26.90;99.90
1880;DHT22;49285;49.002;8.390;2023-08-20T01:43:56;26.80;99.90
1880;DHT22;49285;49.002;8.390;2023-08-20T01:46:21;26.90;99.90
1880;DHT22;49285;49.002;8.390;2023-08-20T01:48:47;26.80;99.90
1880;DHT22;49285;49.002;8.390;2023-08-20T01:51:12;26.80;99.90
1880;DHT22;49285;49.002;8.390;2023-08-20T01:53:38;26.80;99.90
1880;DHT22;49285;49.002;8.390;2023-08-20T01:56:04;26.70;99.90
1880;DHT22;49285;49.002;8.390;2023-08-20T01:58:36;26.70;99.90
1880;DHT22;49285;49.002;8.390;2023-08-20T02:01:01;26.70;99.90
1880;DHT22;49285;49.002;8.390;2023-08-20T02:03:27;26.70;99.90
1880;DHT22;49285;49.002;8.390;2023-08-20T02:05:52;26.60;99.90
1880;DHT22;49285;49.002;8.390;2023-08-20T02:08:18;26.60;99.90
1880;DHT22;49285;49.002;8.390;2023-08-20T02:10:44;26.60;99.90
1880;DHT22;49285;49.002;8.390;2023-08-20T02:13:09;26.60;99.90
1880;DHT22;49285;49.002;8.390;2023-08-20T02:15:35;26.60;99.90
1880;DHT22;49285;49.002;8.390;2023-08-20T02:18:00;26.50;99.90
1880;DHT22;49285;49.002;8.390;2023-08-20T02:20:26;26.50;99.90
1880;DHT22;49285;49.002;8.390;2023-08-20T02:22:52;26.50;99.90
1880;DHT22;49285;49.002;8.390;2023-08-20T02:25:18;26.40;99.90
1880;DHT22;49285;49.002;8.390;2023-08-20T02:27:43;26.40;99.90
1880;DHT22;49285;49.002;8.390;2023-08-20T02:30:09;26.40;99.90
1880;DHT22;49285;49.002;8.390;2023-08-20T02:32:35;26.30;99.90
1880;DHT22;49285;49.002;8.390;2023-08-20T02:35:01;26.30;99.90
1880;DHT22;49285;49.002;8.390;2023-08-20T02:37:26;26.20;99.90
1880;DHT22;49285;49.002;8.390;2023-08-20T02:39:52;26.20;99.90
1880;DHT22;49285;49.002;8.390;2023-08-20T02:42:17;26.20;99.90
1880;DHT22;49285;49.002;8.390;2023-08-20T02:44:43;26.20;99.90
1880;DHT22;49285;49.002;8.390;2023-08-20T02:47:09;26.20;99.90
1880;DHT22;49285;49.002;8.390;2023-08-20T02:49:34;26.20;99.90
1880;DHT22;49285;49.002;8.390;2023-08-20T02:52:00;26.20;99.90
1880;DHT22;49285;49.002;8.390;2023-08-20T02:54:25;26.20;99.90
1880;DHT22;49285;49.002;8.390;2023-08-20T02:56:51;26.10;99.90
1880;DHT22;49285;49.002;8.390;2023-08-20T02:59:16;26.10;99.90
1880;DHT22;49285;49.002;8.390;2023-08-20T03:01:42;26.00;99.90
1880;DHT22;49285;49.002;8.390;2023-08-20T03:04:08;26.00;99.90
1880;DHT22;49285;49.002;8.390;2023-08-20T03:06:33;26.00;99.90
1880;DHT22;49285;49.002;8.390;2023-08-20T03:08:59;26.00;99.90
1880;DHT22;49285;49.002;8.390;2023-08-20T03:11:24;26.00;99.90
1880;DHT22;49285;49.002;8.390;2023-08-20T03:13:50;26.00;99.90
1880;DHT22;49285;49.002;8.390;2023-08-20T03:16:15;26.00;99.90
1880;DHT22;49285;49.002;8.390;2023-08-20T03:18:41;26.00;99.90
1880;DHT22;49285;49.002;8.390;2023-08-20T03:21:06;25.90;99.90
1880;DHT22;49285;49.002;8.390;2023-08-20T03:23:32;25.90;99.90
1880;DHT22;49285;49.002;8.390;2023-08-20T03:25:58;25.90;99.90
1880;DHT22;49285;49.002;8.390;2023-08-20T03:28:24;25.90;99.90
1880;DHT22;49285;49.002;8.390;2023-08-20T03:30:50;25.90;99.90
1880;DHT22;49285;49.002;8.390;2023-08-20T03:33:15;25.90;99.90
1880;DHT22;49285;49.002;8.390;2023-08-20T03:35:42;25.90;99.90
1880;DHT22;49285;49.002;8.390;2023-08-20T03:38:08;25.90;99.90
1880;DHT22;49285;49.002;8.390;2023-08-20T03:40:33;25.90;99.90
1880;DHT22;49285;49.002;8.390;2023-08-20T03:42:59;25.90;99.90
1880;DHT22;49285;49.002;8.390;2023-08-20T03:45:25;25.90;99.90
1880;DHT22;49285;49.002;8.390;2023-08-20T03:47:51;25.90;99.90
1880;DHT22;49285;49.002;8.390;2023-08-20T03:50:16;25.90;99.90
1880;DHT22;49285;49.002;8.390;2023-08-20T03:52:42;25.90;99.90
1880;DHT22;49285;49.002;8.390;2023-08-20T03:55:08;25.90;99.90
1880;DHT22;49285;49.002;8.390;2023-08-20T03:57:33;25.90;99.90
1880;DHT22;49285;49.002;8.390;2023-08-20T03:59:59;25.90;99.90
1880;DHT22;49285;49.002;8.390;2023-08-20T04:02:25;25.90;99.90
1880;DHT22;49285;49.002;8.390;2023-08-20T04:04:50;25.90;99.90
1880;DHT22;49285;49.002;8.390;2023-08-20T04:07:17;25.90;99.90
1880;DHT22;49285;49.002;8.390;2023-08-20T04:09:43;25.90;99.90
1880;DHT22;49285;49.002;8.390;2023-08-20T04:12:09;25.90;99.90
1880;DHT22;49285;49.002;8.390;2023-08-20T04:14:34;25.80;99.90
1880;DHT22;49285;49.002;8.390;2023-08-20T04:17:00;25.90;99.90
1880;DHT22;49285;49.002;8.390;2023-08-20T04:19:25;25.90;99.90
1880;DHT22;49285;49.002;8.390;2023-08-20T04:21:51;25.90;99.90
1880;DHT22;49285;49.002;8.390;2023-08-20T04:24:17;25.90;99.90
1880;DHT22;49285;49.002;8.390;2023-08-20T04:26:42;25.80;99.90
1880;DHT22;49285;49.002;8.390;2023-08-20T04:29:09;25.80;99.90
1880;DHT22;49285;49.002;8.390;2023-08-20T04:31:35;25.80;99.90
1880;DHT22;49285;49.002;8.390;2023-08-20T04:34:00;25.80;99.90
1880;DHT22;49285;49.002;8.390;2023-08-20T04:36:26;25.80;99.90
1880;DHT22;49285;49.002;8.390;2023-08-20T04:38:51;25.80;99.90
1880;DHT22;49285;49.002;8.390;2023-08-20T04:41:17;25.80;99.90
1880;DHT22;49285;49.002;8.390;2023-08-20T04:43:42;25.80;99.90
1880;DHT22;49285;49.002;8.390;2023-08-20T04:46:08;25.80;99.90
1880;DHT22;49285;49.002;8.390;2023-08-20T04:48:33;25.80;99.90
1880;DHT22;49285;49.002;8.390;2023-08-20T04:50:59;25.80;99.90
1880;DHT22;49285;49.002;8.390;2023-08-20T04:53:25;25.70;99.90
1880;DHT22;49285;49.002;8.390;2023-08-20T04:55:51;25.70;99.90
1880;DHT22;49285;49.002;8.390;2023-08-20T04:58:17;25.60;99.90
1880;DHT22;49285;49.002;8.390;2023-08-20T05:00:42;25.60;99.90
1880;DHT22;49285;49.002;8.390;2023-08-20T05:03:08;25.60;99.90
1880;DHT22;49285;49.002;8.390;2023-08-20T05:05:33;25.70;99.90
1880;DHT22;49285;49.002;8.390;2023-08-20T05:07:59;25.70;99.90
1880;DHT22;49285;49.002;8.390;2023-08-20T05:10:25;25.80;99.90
1880;DHT22;49285;49.002;8.390;2023-08-20T05:12:50;25.80;99.90
1880;DHT22;49285;49.002;8.390;2023-08-20T05:15:16;25.80;99.90
1880;DHT22;49285;49.002;8.390;2023-08-20T05:17:42;25.80;99.90
1880;DHT22;49285;49.002;8.390;2023-08-20T05:20:08;25.80;99.90
1880;DHT22;49285;49.002;8.390;2023-08-20T05:22:34;25.80;99.90
1880;DHT22;49285;49.002;8.390;2023-08-20T05:25:00;25.80;99.90
1880;DHT22;49285;49.002;8.390;2023-08-20T05:27:25;25.90;99.90
1880;DHT22;49285;49.002;8.390;2023-08-20T05:29:51;25.80;99.90
1880;DHT22;49285;49.002;8.390;2023-08-20T05:32:16;25.90;99.90
1880;DHT22;49285;49.002;8.390;2023-08-20T05:34:42;25.90;99.90
1880;DHT22;49285;49.002;8.390;2023-08-20T05:37:08;25.90;99.90
1880;DHT22;49285;49.002;8.390;2023-08-20T05:39:40;26.00;99.90
1880;DHT22;49285;49.002;8.390;2023-08-20T05:42:05;26.00;99.90
1880;DHT22;49285;49.002;8.390;2023-08-20T05:44:31;26.00;99.90
1880;DHT22;49285;49.002;8.390;2023-08-20T05:46:57;26.10;99.90
1880;DHT22;49285;49.002;8.390;2023-08-20T05:49:22;26.10;99.90
1880;DHT22;49285;49.002;8.390;2023-08-20T05:51:48;26.10;99.90
1880;DHT22;49285;49.002;8.390;2023-08-20T05:54:14;26.20;99.90
1880;DHT22;49285;49.002;8.390;2023-08-20T05:56:39;26.20;99.90
1880;DHT22;49285;49.002;8.390;2023-08-20T05:59:05;26.20;99.90
1880;DHT22;49285;49.002;8.390;2023-08-20T06:01:30;26.20;99.90
1880;DHT22;49285;49.002;8.390;2023-08-20T06:03:56;26.20;99.90
1880;DHT22;49285;49.002;8.390;2023-08-20T06:06:21;26.20;99.90
1880;DHT22;49285;49.002;8.390;2023-08-20T06:08:47;26.20;99.90
1880;DHT22;49285;49.002;8.390;2023-08-20T06:11:13;26.20;99.90
1880;DHT22;49285;49.002;8.390;2023-08-20T06:13:39;26.20;99.90
1880;DHT22;49285;49.002;8.390;2023-08-20T06:16:06;26.20;99.90
1880;DHT22;49285;49.002;8.390;2023-08-20T06:18:32;26.20;99.90
1880;DHT22;49285;49.002;8.390;2023-08-20T06:20:57;26.20;99.90
1880;DHT22;49285;49.002;8.390;2023-08-20T06:23:23;26.20;99.90
1880;DHT22;49285;49.002;8.390;2023-08-20T06:25:50;26.20;99.90
1880;DHT22;49285;49.002;8.390;2023-08-20T06:28:16;26.20;99.90
1880;DHT22;49285;49.002;8.390;2023-08-20T06:30:41;26.20;99.90
1880;DHT22;49285;49.002;8.390;2023-08-20T06:33:07;26.20;99.90
1880;DHT22;49285;49.002;8.390;2023-08-20T06:35:34;26.20;99.90
1880;DHT22;49285;49.002;8.390;2023-08-20T06:37:59;26.20;99.90
1880;DHT22;49285;49.002;8.390;2023-08-20T06:40:25;26.20;99.90
1880;DHT22;49285;49.002;8.390;2023-08-20T06:42:50;26.20;99.90
1880;DHT22;49285;49.002;8.390;2023-08-20T06:45:16;26.20;99.90
1880;DHT22;49285;49.002;8.390;2023-08-20T06:47:41;26.20;99.90
1880;DHT22;49285;49.002;8.390;2023-08-20T06:50:07;26.30;99.90
1880;DHT22;49285;49.002;8.390;2023-08-20T06:52:33;26.30;99.90
1880;DHT22;49285;49.002;8.390;2023-08-20T06:54:58;26.30;99.90
1880;DHT22;49285;49.002;8.390;2023-08-20T06:57:24;26.30;99.90
1880;DHT22;49285;49.002;8.390;2023-08-20T06:59:50;26.30;99.90
1880;DHT22;49285;49.002;8.390;2023-08-20T07:02:15;26.40;99.90
1880;DHT22;49285;49.002;8.390;2023-08-20T07:04:41;26.40;99.90
1880;DHT22;49285;49.002;8.390;2023-08-20T07:07:06;26.40;99.90
1880;DHT22;49285;49.002;8.390;2023-08-20T07:09:33;26.50;99.90
1880;DHT22;49285;49.002;8.390;2023-08-20T07:11:59;26.50;99.90
1880;DHT22;49285;49.002;8.390;2023-08-20T07:14:24;26.60;99.90
1880;DHT22;49285;49.002;8.390;2023-08-20T07:16:50;26.60;99.90
1880;DHT22;49285;49.002;8.390;2023-08-20T07:19:15;26.60;99.90
1880;DHT22;49285;49.002;8.390;2023-08-20T07:21:41;26.60;99.90
1880;DHT22;49285;49.002;8.390;2023-08-20T07:24:07;26.70;99.90
1880;DHT22;49285;49.002;8.390;2023-08-20T07:26:33;26.60;99.90
1880;DHT22;49285;49.002;8.390;2023-08-20T07:28:58;26.70;99.90
1880;DHT22;49285;49.002;8.390;2023-08-20T07:31:29;26.70;99.90
1880;DHT22;49285;49.002;8.390;2023-08-20T07:33:55;26.80;99.90
1880;DHT22;49285;49.002;8.390;2023-08-20T07:36:22;26.80;99.90
1880;DHT22;49285;49.002;8.390;2023-08-20T07:38:48;26.80;99.90
1880;DHT22;49285;49.002;8.390;2023-08-20T07:41:14;26.80;99.90
1880;DHT22;49285;49.002;8.390;2023-08-20T07:43:41;26.90;99.90
1880;DHT22;49285;49.002;8.390;2023-08-20T07:46:08;26.90;99.90
1880;DHT22;49285;49.002;8.390;2023-08-20T07:48:34;26.90;99.90
1880;DHT22;49285;49.002;8.390;2023-08-20T07:51:01;27.00;99.90
1880;DHT22;49285;49.002;8.390;2023-08-20T07:53:27;27.00;99.90
1880;DHT22;49285;49.002;8.390;2023-08-20T07:55:52;27.10;99.90
1880;DHT22;49285;49.002;8.390;2023-08-20T07:58:18;27.10;99.90
1880;DHT22;49285;49.002;8.390;2023-08-20T08:00:43;27.10;99.90
1880;DHT22;49285;49.002;8.390;2023-08-20T08:03:09;27.20;99.90
1880;DHT22;49285;49.002;8.390;2023-08-20T08:05:35;27.20;99.90
1880;DHT22;49285;49.002;8.390;2023-08-20T08:08:02;27.20;99.90
1880;DHT22;49285;49.002;8.390;2023-08-20T08:10:28;27.30;99.90
1880;DHT22;49285;49.002;8.390;2023-08-20T08:12:54;27.30;99.90
1880;DHT22;49285;49.002;8.390;2023-08-20T08:15:19;27.30;99.90
1880;DHT22;49285;49.002;8.390;2023-08-20T08:17:45;27.30;99.90
1880;DHT22;49285;49.002;8.390;2023-08-20T08:20:11;27.30;99.90
1880;DHT22;49285;49.002;8.390;2023-08-20T08:22:36;27.40;99.90
1880;DHT22;49285;49.002;8.390;2023-08-20T08:25:02;27.40;99.90
1880;DHT22;49285;49.002;8.390;2023-08-20T08:27:28;27.50;99.90
1880;DHT22;49285;49.002;8.390;2023-08-20T08:29:53;27.50;99.90
1880;DHT22;49285;49.002;8.390;2023-08-20T08:32:19;27.50;99.90
1880;DHT22;49285;49.002;8.390;2023-08-20T08:34:44;27.60;99.90
1880;DHT22;49285;49.002;8.390;2023-08-20T08:37:10;27.70;99.90
1880;DHT22;49285;49.002;8.390;2023-08-20T08:39:36;27.70;99.90
1880;DHT22;49285;49.002;8.390;2023-08-20T08:42:02;27.70;99.90
1880;DHT22;49285;49.002;8.390;2023-08-20T08:44:33;27.70;99.90
1880;DHT22;49285;49.002;8.390;2023-08-20T08:46:59;27.80;99.90
1880;DHT22;49285;49.002;8.390;2023-08-20T08:49:25;27.80;99.90
1880;DHT22;49285;49.002;8.390;2023-08-20T08:51:53;27.90;99.90
1880;DHT22;49285;49.002;8.390;2023-08-20T08:54:21;27.90;99.90
1880;DHT22;49285;49.002;8.390;2023-08-20T08:56:46;28.00;99.90
1880;DHT22;49285;49.002;8.390;2023-08-20T08:59:14;28.00;99.90
1880;DHT22;49285;49.002;8.390;2023-08-20T09:01:40;28.10;99.90
1880;DHT22;49285;49.002;8.390;2023-08-20T09:04:07;28.10;99.90
1880;DHT22;49285;49.002;8.390;2023-08-20T09:06:52;28.20;99.90
1880;DHT22;49285;49.002;8.390;2023-08-20T09:09:20;28.20;99.90
1880;DHT22;49285;49.002;8.390;2023-08-20T09:11:47;28.30;99.90
1880;DHT22;49285;49.002;8.390;2023-08-20T09:14:39;28.30;99.90
1880;DHT22;49285;49.002;8.390;2023-08-20T09:17:05;28.40;99.90
1880;DHT22;49285;49.002;8.390;2023-08-20T09:19:35;28.40;99.90
1880;DHT22;49285;49.002;8.390;2023-08-20T09:22:02;28.50;99.90
1880;DHT22;49285;49.002;8.390;2023-08-20T09:24:39;28.60;99.90
1880;DHT22;49285;49.002;8.390;2023-08-20T09:27:04;28.60;99.90
1880;DHT22;49285;49.002;8.390;2023-08-20T09:32:16;28.70;99.90
1880;DHT22;49285;49.002;8.390;2023-08-20T09:34:42;28.70;99.90
1880;DHT22;49285;49.002;8.390;2023-08-20T09:37:15;28.70;99.90
1880;DHT22;49285;49.002;8.390;2023-08-20T09:39:41;28.80;99.90
1880;DHT22;49285;49.002;8.390;2023-08-20T09:42:08;28.80;99.90
1880;DHT22;49285;49.002;8.390;2023-08-20T09:44:35;29.00;99.90
1880;DHT22;49285;49.002;8.390;2023-08-20T09:47:07;29.00;99.90
1880;DHT22;49285;49.002;8.390;2023-08-20T09:49:37;29.10;99.90
1880;DHT22;49285;49.002;8.390;2023-08-20T09:52:11;29.20;99.90
1880;DHT22;49285;49.002;8.390;2023-08-20T09:54:45;29.20;99.90
1880;DHT22;49285;49.002;8.390;2023-08-20T09:57:35;29.30;99.90
1880;DHT22;49285;49.002;8.390;2023-08-20T10:00:03;29.40;99.90
1880;DHT22;49285;49.002;8.390;2023-08-20T10:02:31;29.40;99.90
1880;DHT22;49285;49.002;8.390;2023-08-20T10:04:59;29.40;99.90
1880;DHT22;49285;49.002;8.390;2023-08-20T10:07:29;29.50;99.90
1880;DHT22;49285;49.002;8.390;2023-08-20T10:10:02;29.50;99.90
1880;DHT22;49285;49.002;8.390;2023-08-20T10:12:29;29.60;99.90
1880;DHT22;49285;49.002;8.390;2023-08-20T10:14:58;29.80;99.90
1880;DHT22;49285;49.002;8.390;2023-08-20T10:17:25;29.90;99.90
1880;DHT22;49285;49.002;8.390;2023-08-20T10:19:52;29.90;99.90
1880;DHT22;49285;49.002;8.390;2023-08-20T10:22:19;30.00;99.90
1880;DHT22;49285;49.002;8.390;2023-08-20T10:27:27;30.00;99.90
1880;DHT22;49285;49.002;8.390;2023-08-20T10:29:54;30.00;99.90
1880;DHT22;49285;49.002;8.390;2023-08-20T10:32:21;30.10;99.90
1880;DHT22;49285;49.002;8.390;2023-08-20T10:35:06;30.20;99.90
1880;DHT22;49285;49.002;8.390;2023-08-20T10:37:33;30.30;99.90
1880;DHT22;49285;49.002;8.390;2023-08-20T10:39:59;30.20;99.90
1880;DHT22;49285;49.002;8.390;2023-08-20T10:42:28;30.30;99.90
1880;DHT22;49285;49.002;8.390;2023-08-20T10:50:29;30.50;99.90
1880;DHT22;49285;49.002;8.390;2023-08-20T10:52:55;30.60;99.90
1880;DHT22;49285;49.002;8.390;2023-08-20T10:55:24;30.70;99.90
1880;DHT22;49285;49.002;8.390;2023-08-20T10:57:57;30.70;99.90
1880;DHT22;49285;49.002;8.390;2023-08-20T11:00:24;30.80;99.90
1880;DHT22;49285;49.002;8.390;2023-08-20T11:02:51;30.90;99.90
1880;DHT22;49285;49.002;8.390;2023-08-20T11:05:19;31.00;99.90
1880;DHT22;49285;49.002;8.390;2023-08-20T11:07:45;31.00;99.90
1880;DHT22;49285;49.002;8.390;2023-08-20T11:10:17;31.00;99.90
1880;DHT22;49285;49.002;8.390;2023-08-20T11:12:45;31.10;99.90
1880;DHT22;49285;49.002;8.390;2023-08-20T11:15:11;31.20;99.90
1880;DHT22;49285;49.002;8.390;2023-08-20T11:17:47;31.30;99.90
1880;DHT22;49285;49.002;8.390;2023-08-20T11:20:16;31.30;99.90
1880;DHT22;49285;49.002;8.390;2023-08-20T11:22:42;31.40;99.90
1880;DHT22;49285;49.002;8.390;2023-08-20T11:25:12;31.40;99.90
1880;DHT22;49285;49.002;8.390;2023-08-20T11:27:41;31.50;99.90
1880;DHT22;49285;49.002;8.390;2023-08-20T11:30:08;31.60;99.90
1880;DHT22;49285;49.002;8.390;2023-08-20T11:32:35;31.70;99.90
1880;DHT22;49285;49.002;8.390;2023-08-20T11:35:01;31.70;99.90
1880;DHT22;49285;49.002;8.390;2023-08-20T11:37:27;31.80;99.90
1880;DHT22;49285;49.002;8.390;2023-08-20T11:39:53;31.90;99.90
1880;DHT22;49285;49.002;8.390;2023-08-20T11:42:19;31.90;99.90
1880;DHT22;49285;49.002;8.390;2023-08-20T11:44:47;32.00;99.90
1880;DHT22;49285;49.002;8.390;2023-08-20T11:47:17;32.10;99.90
1880;DHT22;49285;49.002;8.390;2023-08-20T11:49:43;32.20;99.90
1880;DHT22;49285;49.002;8.390;2023-08-20T11:52:09;32.40;99.90
1880;DHT22;49285;49.002;8.390;2023-08-20T11:54:35;32.50;99.90
1880;DHT22;49285;49.002;8.390;2023-08-20T11:57:03;32.60;99.90
1880;DHT22;49285;49.002;8.390;2023-08-20T11:59:28;32.70;99.90
1880;DHT22;49285;49.002;8.390;2023-08-20T12:02:02;32.90;99.90
1880;DHT22;49285;49.002;8.390;2023-08-20T12:04:31;33.10;99.90
1880;DHT22;49285;49.002;8.390;2023-08-20T12:07:12;33.30;99.90
1880;DHT22;49285;49.002;8.390;2023-08-20T12:09:38;33.40;99.90
1880;DHT22;49285;49.002;8.390;2023-08-20T12:12:06;33.80;99.90
1880;DHT22;49285;49.002;8.390;2023-08-20T12:14:31;34.20;99.90
1880;DHT22;49285;49.002;8.390;2023-08-20T12:16:57;34.60;99.90
1880;DHT22;49285;49.002;8.390;2023-08-20T12:19:24;34.90;99.90
1880;DHT22;49285;49.002;8.390;2023-08-20T12:21:50;35.20;99.90
1880;DHT22;49285;49.002;8.390;2023-08-20T12:24:15;35.50;99.90
1880;DHT22;49285;49.002;8.390;2023-08-20T12:26:42;35.70;99.90
1880;DHT22;49285;49.002;8.390;2023-08-20T12:29:07;36.00;99.90
1880;DHT22;49285;49.002;8.390;2023-08-20T12:31:34;36.20;99.90
1880;DHT22;49285;49.002;8.390;2023-08-20T12:34:00;36.40;99.90
1880;DHT22;49285;49.002;8.390;2023-08-20T12:36:26;36.70;99.90
1880;DHT22;49285;49.002;8.390;2023-08-20T12:38:51;36.80;99.90
1880;DHT22;49285;49.002;8.390;2023-08-20T12:41:18;37.00;99.90
1880;DHT22;49285;49.002;8.390;2023-08-20T12:43:44;37.10;99.90
1880;DHT22;49285;49.002;8.390;2023-08-20T12:46:10;37.10;99.90
1880;DHT22;49285;49.002;8.390;2023-08-20T12:48:35;37.20;99.90
1880;DHT22;49285;49.002;8.390;2023-08-20T12:51:01;37.30;99.90
1880;DHT22;49285;49.002;8.390;2023-08-20T12:53:28;37.30;99.10
1880;DHT22;49285;49.002;8.390;2023-08-20T12:55:54;37.40;98.00
1880;DHT22;49285;49.002;8.390;2023-08-20T12:58:19;37.40;97.50
1880;DHT22;49285;49.002;8.390;2023-08-20T13:00:46;37.40;95.70
1880;DHT22;49285;49.002;8.390;2023-08-20T13:03:12;37.50;94.60
1880;DHT22;49285;49.002;8.390;2023-08-20T13:05:38;37.60;93.60
1880;DHT22;49285;49.002;8.390;2023-08-20T13:08:04;37.70;93.90
1880;DHT22;49285;49.002;8.390;2023-08-20T13:10:30;37.80;94.00
1880;DHT22;49285;49.002;8.390;2023-08-20T13:13:00;37.90;93.10
1880;DHT22;49285;49.002;8.390;2023-08-20T13:15:25;38.10;92.20
1880;DHT22;49285;49.002;8.390;2023-08-20T13:17:51;38.10;92.40
1880;DHT22;49285;49.002;8.390;2023-08-20T13:20:17;38.20;91.80
1880;DHT22;49285;49.002;8.390;2023-08-20T13:22:47;38.20;91.10
1880;DHT22;49285;49.002;8.390;2023-08-20T13:25:13;38.40;91.30
1880;DHT22;49285;49.002;8.390;2023-08-20T13:27:40;38.60;90.80
1880;DHT22;49285;49.002;8.390;2023-08-20T13:30:07;38.60;90.30
1880;DHT22;49285;49.002;8.390;2023-08-20T13:32:34;38.80;89.80
1880;DHT22;49285;49.002;8.390;2023-08-20T13:35:00;38.90;88.60
1880;DHT22;49285;49.002;8.390;2023-08-20T13:37:25;39.10;87.30
1880;DHT22;49285;49.002;8.390;2023-08-20T13:39:51;39.30;86.60
1880;DHT22;49285;49.002;8.390;2023-08-20T13:42:16;39.50;86.30
1880;DHT22;49285;49.002;8.390;2023-08-20T13:44:42;39.60;84.80
1880;DHT22;49285;49.002;8.390;2023-08-20T13:47:08;39.60;83.80
1880;DHT22;49285;49.002;8.390;2023-08-20T13:49:33;39.60;82.80
1880;DHT22;49285;49.002;8.390;2023-08-20T13:51:59;39.70;82.20
1880;DHT22;49285;49.002;8.390;2023-08-20T13:54:24;39.80;82.30
1880;DHT22;49285;49.002;8.390;2023-08-20T13:56:50;39.80;81.60
1880;DHT22;49285;49.002;8.390;2023-08-20T13:59:15;39.70;80.20
1880;DHT22;49285;49.002;8.390;2023-08-20T14:01:41;39.70;80.00
1880;DHT22;49285;49.002;8.390;2023-08-20T14:04:07;39.50;79.10
1880;DHT22;49285;49.002;8.390;2023-08-20T14:06:32;39.50;79.10
1880;DHT22;49285;49.002;8.390;2023-08-20T14:08:58;39.10;79.40
1880;DHT22;49285;49.002;8.390;2023-08-20T14:11:23;39.00;80.10
1880;DHT22;49285;49.002;8.390;2023-08-20T14:13:49;39.00;78.70
1880;DHT22;49285;49.002;8.390;2023-08-20T14:16:15;39.00;79.10
1880;DHT22;49285;49.002;8.390;2023-08-20T14:18:40;39.00;79.60
1880;DHT22;49285;49.002;8.390;2023-08-20T14:21:06;39.10;80.50
1880;DHT22;49285;49.002;8.390;2023-08-20T14:23:32;39.20;79.50
1880;DHT22;49285;49.002;8.390;2023-08-20T14:25:58;39.40;79.10
1880;DHT22;49285;49.002;8.390;2023-08-20T14:28:23;39.30;77.50
1880;DHT22;49285;49.002;8.390;2023-08-20T14:30:49;39.10;77.00
1880;DHT22;49285;49.002;8.390;2023-08-20T14:33:20;39.20;76.70
1880;DHT22;49285;49.002;8.390;2023-08-20T14:35:46;39.40;75.30
1880;DHT22;49285;49.002;8.390;2023-08-20T14:38:12;39.50;74.70
1880;DHT22;49285;49.002;8.390;2023-08-20T14:40:39;39.70;73.30
1880;DHT22;49285;49.002;8.390;2023-08-20T14:43:06;40.00;72.70
1880;DHT22;49285;49.002;8.390;2023-08-20T14:45:32;40.40;72.40
1880;DHT22;49285;49.002;8.390;2023-08-20T14:47:57;40.50;71.20
1880;DHT22;49285;49.002;8.390;2023-08-20T14:50:23;40.90;67.80
1880;DHT22;49285;49.002;8.390;2023-08-20T14:52:48;41.30;65.70
1880;DHT22;49285;49.002;8.390;2023-08-20T14:55:18;41.50;63.30
1880;DHT22;49285;49.002;8.390;2023-08-20T14:57:43;41.70;63.00
1880;DHT22;49285;49.002;8.390;2023-08-20T15:00:10;41.80;61.30
1880;DHT22;49285;49.002;8.390;2023-08-20T15:02:46;41.80;60.50
1880;DHT22;49285;49.002;8.390;2023-08-20T15:05:12;41.80;59.60
1880;DHT22;49285;49.002;8.390;2023-08-20T15:07:37;41.70;59.40
1880;DHT22;49285;49.002;8.390;2023-08-20T15:10:03;41.50;59.30
1880;DHT22;49285;49.002;8.390;2023-08-20T15:12:33;41.30;59.40
1880;DHT22;49285;49.002;8.390;2023-08-20T15:14:59;41.20;59.60
1880;DHT22;49285;49.002;8.390;2023-08-20T15:17:24;41.10;59.60
1880;DHT22;49285;49.002;8.390;2023-08-20T15:19:50;40.90;59.80
1880;DHT22;49285;49.002;8.390;2023-08-20T15:22:16;40.50;59.20
1880;DHT22;49285;49.002;8.390;2023-08-20T15:24:42;40.30;59.90
1880;DHT22;49285;49.002;8.390;2023-08-20T15:27:08;40.00;60.40
1880;DHT22;49285;49.002;8.390;2023-08-20T15:29:33;39.80;61.20
1880;DHT22;49285;49.002;8.390;2023-08-20T15:31:59;39.70;60.40
1880;DHT22;49285;49.002;8.390;2023-08-20T15:34:24;39.50;61.00
1880;DHT22;49285;49.002;8.390;2023-08-20T15:36:50;39.40;60.90
1880;DHT22;49285;49.002;8.390;2023-08-20T15:39:16;39.30;60.90
1880;DHT22;49285;49.002;8.390;2023-08-20T15:41:44;39.20;60.10
1880;DHT22;49285;49.002;8.390;2023-08-20T15:44:11;39.10;60.30
1880;DHT22;49285;49.002;8.390;2023-08-20T15:46:37;39.10;59.90
1880;DHT22;49285;49.002;8.390;2023-08-20T15:49:03;39.00;60.20
1880;DHT22;49285;49.002;8.390;2023-08-20T15:51:29;39.00;59.90
1880;DHT22;49285;49.002;8.390;2023-08-20T15:53:55;38.90;59.60
1880;DHT22;49285;49.002;8.390;2023-08-20T15:56:21;38.80;60.40